North Brooklin, Maine
Current Conditions -  °F | °C
As of 4:55 AM on Saturday 01 Nov 2014 (Local Time) from KBHB Reporting Station
Overcast Overcast  
Wind Chill: 36°   Ceiling: 3900
Heat Index: 43°   Visibility: 10mi
Dew Point: 43°   Wind: 13mph
Humidity: 100%   Direction: 10°N
Pressure: 29.96"   Gusts: NA
Location:  44.3032°N, 68.5727°W
Report Text: KBHB 010855Z AUTO 01011KT 10SM OVC039 06/06 A2996 RMK AO1 57020
Loading
Personal Weather Stations






























Interactive Weather Map
Tropical Storm Tracking
New forecast layout! Learn more

10-Day Weather Forecast

Advertisements
Track Severe Weather on mobile